Time;durP1;ratioP1;P1;durP2;ratioP2;P2;SDS_P1;SDS_P2;PMS_P1;PMS_P2;Temp;Humidity;BMP_temperature;BMP_pressure;BME280_temperature;BME280_humidity;BME280_pressure;Samples;Min_cycle;Max_cycle;Signal;HPM_P1;HPM_P2
2023/05/06 00:00:56;;;;;;;4.30;2.20;;;;;;;20.25;61.32;98869.59;2068367;28;20053;-56
2023/05/06 00:01:57;;;;;;;2.08;1.63;;;;;;;20.25;61.15;98866.91;2067545;28;21102;-53
2023/05/06 00:02:59;;;;;;;;;;;;;;;20.17;61.50;98875.19;2068601;28;20178;-53
2023/05/06 00:03:59;;;;;;;;;;;;;;;20.10;61.46;98877.91;2068077;28;19925;-56
2023/05/06 00:05:02;;;;;;;3.30;1.87;;;;;;;20.13;61.37;98866.72;2066441;28;20299;-55
2023/05/06 00:06:05;;;;;;;2.47;1.63;;;;;;;20.19;61.09;98876.66;2068432;28;20083;-51
2023/05/06 00:07:07;;;;;;;2.63;1.75;;;;;;;20.22;60.95;98878.94;2073482;28;20049;-56
2023/05/06 00:08:08;;;;;;;3.20;1.55;;;;;;;20.24;60.75;98871.47;2068572;28;20103;-53
2023/05/06 00:09:09;;;;;;;;;;;;;;;20.14;61.32;98862.16;2070980;28;20052;-53
2023/05/06 00:10:10;;;;;;;;;;;;;;;20.06;61.62;98858.66;2062812;28;20083;-52
2023/05/06 00:11:12;;;;;;;3.60;1.70;;;;;;;20.15;61.51;98863.84;2068314;28;20001;-57
2023/05/06 00:12:13;;;;;;;1.40;1.20;;;;;;;20.20;61.37;98861.34;2068388;28;20995;-50
2023/05/06 00:13:15;;;;;;;2.70;1.48;;;;;;;20.21;61.57;98861.13;2068045;28;20107;-55
2023/05/06 00:14:15;;;;;;;4.20;1.77;;;;;;;20.22;61.23;98860.06;2068310;28;20132;-53
2023/05/06 00:15:18;;;;;;;;;;;;;;;20.13;61.62;98853.25;2069033;28;20334;-54
2023/05/06 00:16:19;;;;;;;3.72;1.67;;;;;;;20.15;61.22;98851.19;2065396;28;20212;-54
2023/05/06 00:17:20;;;;;;;;;;;;;;;20.09;61.55;98852.84;2070438;28;20114;-49
2023/05/06 00:18:21;;;;;;;2.95;1.85;;;;;;;20.12;61.54;98851.59;2075989;28;19928;-51
2023/05/06 00:19:23;;;;;;;1.75;1.52;;;;;;;20.17;61.34;98842.88;2071827;28;20142;-54
2023/05/06 00:20:24;;;;;;;2.83;1.67;;;;;;;20.20;61.41;98848.69;2066124;28;20356;-57
2023/05/06 00:21:25;;;;;;;;;;;;;;;20.11;61.73;98851.81;2068481;28;20045;-55
2023/05/06 00:22:27;;;;;;;2.95;1.90;;;;;;;20.12;61.40;98846.22;2070494;28;19929;-55
2023/05/06 00:23:28;;;;;;;2.70;1.67;;;;;;;20.17;61.32;98846.44;2068063;28;20094;-50
2023/05/06 00:24:29;;;;;;;2.90;1.63;;;;;;;20.19;61.14;98844.34;2068596;28;20180;-53
2023/05/06 00:25:31;;;;;;;;;;;;;;;20.12;61.45;98848.91;2070737;28;20057;-50
2023/05/06 00:26:31;;;;;;;3.17;2.35;;;;;;;20.14;61.75;98846.00;2074957;28;19979;-51
2023/05/06 00:27:33;;;;;;;4.20;1.75;;;;;;;20.17;61.33;98846.44;2076361;28;20926;-53
2023/05/06 00:28:34;;;;;;;2.33;1.70;;;;;;;20.18;61.31;98837.31;2077607;28;20083;-55
2023/05/06 00:29:35;;;;;;;;;;;;;;;20.09;61.51;98846.66;2077467;28;20128;-49
2023/05/06 00:30:37;;;;;;;3.38;1.40;;;;;;;20.13;61.61;98842.47;2077054;28;19925;-53
2023/05/06 00:31:39;;;;;;;2.75;1.67;;;;;;;20.17;61.02;98837.50;2077598;28;20491;-54
2023/05/06 00:32:39;;;;;;;2.58;1.63;;;;;;;20.17;61.17;98830.28;2076662;28;20103;-50
2023/05/06 00:33:41;;;;;;;;;;;;;;;20.07;61.60;98835.25;2077900;28;20057;-49
2023/05/06 00:34:41;;;;;;;2.05;1.38;;;;;;;20.11;61.43;98844.53;2078623;28;20083;-49
2023/05/06 00:35:43;;;;;;;3.53;1.77;;;;;;;20.14;61.33;98841.44;2075330;28;20173;-47
2023/05/06 00:36:44;;;;;;;2.95;1.65;;;;;;;20.16;61.54;98833.97;2076815;28;20044;-54
2023/05/06 00:37:46;;;;;;;;;;;;;;;20.08;61.65;98845.78;2075853;28;20155;-50
2023/05/06 00:38:47;;;;;;;3.22;1.23;;;;;;;20.12;61.38;98838.16;2076144;28;19936;-54
2023/05/06 00:39:48;;;;;;;;;;;;;;;20.04;61.90;98843.75;2075613;28;20076;-56
2023/05/06 00:40:49;;;;;;;2.60;1.33;;;;;;;20.07;61.37;98835.25;2077228;28;19932;-51
2023/05/06 00:41:51;;;;;;;4.05;1.52;;;;;;;20.13;61.32;98839.78;2073822;28;20986;-52
2023/05/06 00:42:52;;;;;;;3.25;1.60;;;;;;;20.15;61.55;98837.72;2078296;28;20525;-52
2023/05/06 00:43:53;;;;;;;;;;;;;;;20.04;61.70;98835.66;2077932;28;20671;-52
2023/05/06 00:44:54;;;;;;;1.92;1.23;;;;;;;20.09;61.78;98834.00;2076611;28;19955;-55
2023/05/06 00:45:57;;;;;;;2.65;1.38;;;;;;;20.13;61.60;98831.72;2076749;28;20049;-54
2023/05/06 00:46:58;;;;;;;2.08;1.35;;;;;;;20.15;61.47;98837.72;2076933;28;20111;-53
2023/05/06 00:48:00;;;;;;;2.92;1.35;;;;;;;20.17;61.44;98840.19;2069685;28;20482;-56
2023/05/06 00:49:01;;;;;;;3.58;1.35;;;;;;;20.17;61.66;98842.88;2069402;28;20048;-50
2023/05/06 00:50:03;;;;;;;;;;;;;;;20.07;61.59;98844.16;2072591;28;20553;-53
2023/05/06 00:51:04;;;;;;;3.58;1.35;;;;;;;20.11;61.58;98839.16;2069385;28;19928;-51
2023/05/06 00:52:05;;;;;;;;;;;;;;;20.02;61.57;98838.56;2068342;28;20787;-52
2023/05/06 00:53:08;;;;;;;2.75;1.27;;;;;;;20.08;62.01;98842.28;2071288;28;19924;-58
2023/05/06 00:54:10;;;;;;;3.92;1.73;;;;;;;20.12;61.64;98829.25;2069828;28;20174;-53
2023/05/06 00:55:11;;;;;;;2.80;1.63;;;;;;;20.14;61.35;98838.75;2072938;28;20438;-53
2023/05/06 00:56:13;;;;;;;;;;;;;;;20.04;61.74;98838.34;2069121;28;20144;-53
2023/05/06 00:57:13;;;;;;;;;;;;;;;19.95;61.93;98843.13;2071245;28;20370;-58
2023/05/06 00:58:15;;;;;;;4.03;1.37;;;;;;;20.04;61.61;98846.44;2068037;28;20198;-55
2023/05/06 00:59:16;;;;;;;5.07;1.50;;;;;;;20.09;61.40;98854.72;2071392;28;20091;-50
2023/05/06 01:00:20;;;;;;;3.03;1.58;;;;;;;20.12;61.39;98848.09;2067316;28;20134;-51
2023/05/06 01:01:23;;;;;;;2.38;1.27;;;;;;;20.15;61.08;98851.19;2069246;28;20137;-56
2023/05/06 01:02:25;;;;;;;2.83;1.42;;;;;;;20.15;61.33;98844.97;2070353;28;20562;-52
2023/05/06 01:03:25;;;;;;;3.00;1.63;;;;;;;20.16;61.23;98850.16;2069392;28;20132;-52
2023/05/06 01:04:28;;;;;;;;;;;;;;;20.05;61.30;98846.22;2066849;28;20079;-47
2023/05/06 01:05:34;;;;;;;2.17;1.10;;;;;;;20.10;61.58;98845.59;2069150;28;19932;-52
2023/05/06 01:06:45;;;;;;;2.92;1.80;;;;;;;20.12;61.54;98842.72;2071555;28;20045;-48
2023/05/06 01:07:53;;;;;;;6.25;1.67;;;;;;;20.11;61.15;98846.41;2069016;28;20496;-55
2023/05/06 01:09:05;;;;;;;3.67;1.50;;;;;;;20.12;61.33;98843.53;2072297;28;20468;-49
2023/05/06 01:10:12;;;;;;;2.17;1.30;;;;;;;20.12;61.10;98838.16;2068627;28;20072;-56
2023/05/06 01:11:20;;;;;;;2.20;1.92;;;;;;;20.13;61.45;98834.41;2071685;28;20052;-54
2023/05/06 01:12:28;;;;;;;2.03;1.20;;;;;;;20.13;61.31;98834.41;2068438;28;20064;-56
2023/05/06 01:13:37;;;;;;;2.15;1.30;;;;;;;20.12;61.57;98840.84;2070862;28;20054;-53
2023/05/06 01:14:44;;;;;;;2.53;1.42;;;;;;;20.13;61.35;98839.78;2071394;28;20424;-47
2023/05/06 01:15:47;;;;;;;1.80;1.35;;;;;;;20.13;61.33;98842.47;2069538;28;20584;-53
2023/05/06 01:16:53;;;;;;;2.25;1.38;;;;;;;20.13;61.50;98836.28;2067882;28;20741;-49
2023/05/06 01:18:00;;;;;;;2.05;1.38;;;;;;;20.12;61.40;98843.53;2071385;28;20616;-46
2023/05/06 01:19:05;;;;;;;2.17;1.30;;;;;;;20.13;61.02;98837.09;2073749;28;20045;-55
2023/05/06 01:20:10;;;;;;;3.33;1.70;;;;;;;20.14;61.62;98830.66;2078142;28;20080;-55
2023/05/06 01:21:12;;;;;;;2.95;1.40;;;;;;;20.14;61.26;98836.03;2070989;28;20140;-49
2023/05/06 01:22:15;;;;;;;1.23;0.80;;;;;;;20.16;61.36;98833.97;2069439;28;20584;-55
2023/05/06 01:23:18;;;;;;;1.60;0.98;;;;;;;20.15;61.33;98837.72;2070311;28;20090;-53
2023/05/06 01:24:19;;;;;;;2.40;1.23;;;;;;;20.15;61.10;98834.22;2071608;28;20056;-51
2023/05/06 01:25:21;;;;;;;2.42;1.13;;;;;;;20.15;61.08;98831.50;2070570;28;20591;-48
2023/05/06 01:26:23;;;;;;;1.75;1.20;;;;;;;20.16;61.43;98838.53;2072537;28;20137;-55
2023/05/06 01:27:24;;;;;;;2.15;1.40;;;;;;;20.16;61.03;98839.38;2070574;28;20041;-52
2023/05/06 01:28:25;;;;;;;;;;;;;;;20.04;61.23;98841.03;2068740;28;20061;-54
2023/05/06 01:29:26;;;;;;;2.58;1.52;;;;;;;20.07;61.75;98837.94;2071023;28;19932;-56
2023/05/06 01:30:30;;;;;;;;;;;;;;;19.98;61.86;98831.94;2070090;28;20053;-56
2023/05/06 01:31:41;;;;;;;2.03;1.10;;;;;;;20.04;61.49;98841.03;2071761;28;19932;-53
2023/05/06 01:32:52;;;;;;;1.85;1.13;;;;;;;20.04;61.69;98835.66;2069309;28;20057;-48
2023/05/06 01:34:04;;;;;;;1.23;0.95;;;;;;;20.06;61.47;98836.28;2071982;28;20122;-53
2023/05/06 01:35:15;;;;;;;2.20;1.40;;;;;;;20.08;61.17;98832.31;2071720;28;20049;-53
2023/05/06 01:36:22;;;;;;;3.20;1.30;;;;;;;20.09;61.50;98833.19;2072374;28;20057;-49
2023/05/06 01:37:32;;;;;;;2.80;1.35;;;;;;;20.11;61.25;98833.78;2071738;28;20049;-56
2023/05/06 01:38:40;;;;;;;2.42;1.42;;;;;;;20.12;61.16;98846.22;2068753;28;20054;-58
2023/05/06 01:39:43;;;;;;;2.45;1.70;;;;;;;20.09;61.58;98835.88;2063161;28;20295;-53
2023/05/06 01:40:52;;;;;;;1.33;1.15;;;;;;;20.09;61.39;98838.56;2070937;28;20053;-50
2023/05/06 01:41:58;;;;;;;2.33;0.95;;;;;;;20.11;61.30;98836.47;2070406;28;20045;-50
2023/05/06 01:43:01;;;;;;;1.45;1.23;;;;;;;20.11;61.59;98831.09;2070746;28;21022;-52
2023/05/06 01:44:05;;;;;;;2.53;1.27;;;;;;;20.12;61.08;98826.56;2071631;28;20053;-48
2023/05/06 01:45:08;;;;;;;1.60;1.15;;;;;;;20.10;61.39;98829.44;2069478;28;20146;-49
2023/05/06 01:46:14;;;;;;;2.75;1.50;;;;;;;20.11;61.09;98825.69;2072039;28;20053;-51
2023/05/06 01:47:16;;;;;;;1.83;1.35;;;;;;;20.09;61.41;98827.78;2071813;28;20049;-55
2023/05/06 01:48:19;;;;;;;2.22;1.27;;;;;;;20.09;61.26;98827.78;2071454;28;20485;-56
2023/05/06 01:49:22;;;;;;;3.55;1.35;;;;;;;20.10;61.80;98826.75;2071476;28;20738;-48
2023/05/06 01:50:23;;;;;;;3.00;1.50;;;;;;;20.14;61.30;98835.22;2070402;28;20049;-56
2023/05/06 01:51:24;;;;;;;2.25;1.33;;;;;;;20.11;61.25;98825.69;2072858;28;20098;-52
2023/05/06 01:52:26;;;;;;;;;;;;;;;20.00;61.67;98820.94;2069726;28;20069;-54
2023/05/06 01:53:27;;;;;;;1.58;1.08;;;;;;;20.04;61.90;98825.72;2070002;28;20010;-56
2023/05/06 01:54:30;;;;;;;;;;;;;;;19.97;61.69;98830.25;2070735;28;20049;-52
2023/05/06 01:55:31;;;;;;;2.53;1.10;;;;;;;20.02;61.50;98825.09;2073030;28;20599;-52
2023/05/06 01:56:32;;;;;;;;;;;;;;;19.94;61.86;98833.38;2069877;28;20056;-51
2023/05/06 01:57:33;;;;;;;1.48;1.25;;;;;;;19.97;61.70;98826.75;2069862;28;20007;-55
2023/05/06 01:58:34;;;;;;;;;;;;;;;19.91;62.17;98820.31;2069556;28;20832;-57
2023/05/06 01:59:35;;;;;;;;;;;;;;;19.89;62.34;98822.41;2073571;28;21569;-55
2023/05/06 02:00:38;;;;;;;1.90;1.50;;;;;;;19.95;61.92;98826.16;2069052;28;19936;-52
2023/05/06 02:01:39;;;;;;;2.50;1.50;;;;;;;20.00;61.44;98819.09;2069404;28;20338;-57
2023/05/06 02:02:40;;;;;;;;;;;;;;;19.92;62.02;98816.63;2069146;28;20134;-53
2023/05/06 02:03:41;;;;;;;2.17;1.23;;;;;;;19.98;61.71;98828.44;2072764;28;19978;-54
2023/05/06 02:04:42;;;;;;;3.20;1.60;;;;;;;20.02;61.48;98826.97;2071130;28;20067;-51
2023/05/06 02:05:43;;;;;;;2.92;1.70;;;;;;;20.04;61.62;98827.59;2071907;28;20090;-51
2023/05/06 02:06:44;;;;;;;;;;;;;;;19.98;61.96;98825.72;2073788;28;20049;-47
2023/05/06 02:07:45;;;;;;;2.15;1.25;;;;;;;20.00;61.74;98827.19;2077408;28;19925;-49
2023/05/06 02:08:47;;;;;;;;;;;;;;;19.93;61.85;98831.72;2074558;28;20143;-50
2023/05/06 02:09:48;;;;;;;;;;;;;;;19.88;62.24;98822.63;2078534;28;20050;-54
2023/05/06 02:10:50;;;;;;;1.77;1.67;;;;;;;19.97;61.90;98826.75;2071502;28;19928;-51
2023/05/06 02:11:51;;;;;;;2.28;1.05;;;;;;;20.05;61.64;98821.16;2071128;28;20057;-56
2023/05/06 02:12:52;;;;;;;;;;;;;;;19.96;61.65;98827.78;2072830;28;20150;-53
2023/05/06 02:13:53;;;;;;;1.90;1.17;;;;;;;19.98;61.79;98825.72;2072393;28;20455;-53
2023/05/06 02:14:55;;;;;;;1.38;1.10;;;;;;;20.02;61.24;98817.00;2067057;28;20045;-55
2023/05/06 02:15:56;;;;;;;1.40;1.30;;;;;;;20.03;61.82;98818.69;2069020;28;20476;-56
2023/05/06 02:16:57;;;;;;;;;;;;;;;19.94;61.42;98819.09;2072215;28;20041;-49
2023/05/06 02:17:58;;;;;;;1.60;1.17;;;;;;;19.96;61.98;98822.41;2076123;28;19928;-52
2023/05/06 02:19:00;;;;;;;1.60;1.17;;;;;;;20.01;61.46;98820.75;2075509;28;20131;-53
2023/05/06 02:20:00;;;;;;;1.45;1.20;;;;;;;20.04;61.52;98811.44;2070448;28;20045;-56
2023/05/06 02:21:03;;;;;;;2.40;1.50;;;;;;;20.06;61.60;98812.06;2070855;28;20187;-50
2023/05/06 02:22:03;;;;;;;2.50;1.15;;;;;;;20.05;61.43;98811.22;2069509;28;20045;-57
2023/05/06 02:23:05;;;;;;;1.00;0.90;;;;;;;20.06;61.50;98817.44;2069939;28;20053;-51
2023/05/06 02:24:06;;;;;;;2.20;1.00;;;;;;;20.05;61.39;98811.22;2069244;28;21871;-55
2023/05/06 02:25:10;;;;;;;1.60;1.10;;;;;;;20.06;61.39;98809.38;2068596;28;20120;-53
2023/05/06 02:26:10;;;;;;;3.05;1.50;;;;;;;20.04;61.58;98811.44;2070196;28;20064;-50
2023/05/06 02:27:12;;;;;;;;;;;;;;;19.95;61.60;98815.38;2076287;28;20156;-53
2023/05/06 02:28:12;;;;;;;2.20;1.67;;;;;;;19.99;61.26;98816.59;2075817;28;19925;-50
2023/05/06 02:29:14;;;;;;;;;;;;;;;19.90;61.70;98816.00;2078069;28;20049;-53
2023/05/06 02:30:15;;;;;;;1.10;1.00;;;;;;;19.97;61.87;98814.09;2078393;28;20337;-55
2023/05/06 02:31:16;;;;;;;;;;;;;;;19.91;61.71;98806.88;2076923;28;20045;-56
2023/05/06 02:32:17;;;;;;;1.92;1.25;;;;;;;19.99;61.77;98803.16;2077599;28;19929;-55
2023/05/06 02:33:19;;;;;;;;;;;;;;;19.95;61.83;98813.50;2076903;28;20041;-50
2023/05/06 02:34:19;;;;;;;1.95;1.08;;;;;;;20.00;61.62;98802.94;2076266;28;19931;-52
2023/05/06 02:35:21;;;;;;;1.75;1.33;;;;;;;20.01;61.40;98803.78;2077131;28;20084;-49
2023/05/06 02:36:21;;;;;;;2.88;1.38;;;;;;;20.01;61.85;98806.47;2077793;28;20185;-52
2023/05/06 02:37:23;;;;;;;;;;;;;;;19.91;61.61;98801.50;2076780;28;20210;-47
2023/05/06 02:38:25;;;;;;;1.60;1.30;;;;;;;19.95;61.54;98799.22;2075909;28;19925;-53
2023/05/06 02:39:27;;;;;;;3.50;1.83;;;;;;;19.99;61.56;98801.28;2078154;28;20057;-49
2023/05/06 02:40:29;;;;;;;2.67;1.50;;;;;;;20.02;61.77;98797.34;2074074;28;20638;-55
2023/05/06 02:41:30;;;;;;;2.38;1.20;;;;;;;20.02;61.45;98800.84;2078185;28;20061;-57
2023/05/06 02:42:32;;;;;;;2.05;1.30;;;;;;;20.04;61.14;98803.34;2074995;28;20056;-49
2023/05/06 02:43:34;;;;;;;2.25;1.30;;;;;;;20.03;61.21;98802.53;2076304;28;20394;-55
2023/05/06 02:44:35;;;;;;;2.05;0.98;;;;;;;20.08;61.62;98802.72;2076391;28;20053;-49
2023/05/06 02:45:36;;;;;;;;;;;;;;;20.01;61.60;98803.78;2076165;28;20495;-53
2023/05/06 02:46:37;;;;;;;2.22;1.40;;;;;;;20.04;61.66;98798.78;2077886;28;19977;-51
2023/05/06 02:47:39;;;;;;;;;;;;;;;19.95;61.73;98802.75;2073076;28;20293;-56
2023/05/06 02:48:40;;;;;;;;;;;;;;;19.91;61.85;98795.28;2069996;28;20706;-53
2023/05/06 02:49:42;;;;;;;;;;;;;;;19.91;61.75;98800.66;2071046;28;20140;-56
2023/05/06 02:50:43;;;;;;;1.23;1.13;;;;;;;19.99;61.51;98792.38;2070456;28;20657;-55
2023/05/06 02:51:45;;;;;;;2.45;1.40;;;;;;;20.01;61.66;98803.78;2070669;28;20149;-52
2023/05/06 02:52:46;;;;;;;2.30;1.63;;;;;;;20.03;61.25;98798.97;2069278;28;20049;-53
2023/05/06 02:53:48;;;;;;;;;;;;;;;19.94;61.42;98797.56;2068894;28;20071;-50
2023/05/06 02:54:49;;;;;;;1.42;0.98;;;;;;;19.94;61.82;98798.38;2068575;28;19933;-56
2023/05/06 02:55:52;;;;;;;1.73;1.42;;;;;;;20.03;61.54;98794.44;2069937;28;20056;-49
2023/05/06 02:56:52;;;;;;;2.08;1.48;;;;;;;20.07;61.39;98792.16;2069290;28;20057;-55
2023/05/06 02:57:54;;;;;;;;;;;;;;;20.01;61.58;98798.38;2072636;28;20053;-49
2023/05/06 02:58:54;;;;;;;0.70;0.70;;;;;;;20.07;61.45;98786.78;2069120;28;19975;-56
2023/05/06 02:59:56;;;;;;;1.52;1.30;;;;;;;20.09;61.16;98795.47;2070151;28;20044;-52
2023/05/06 03:00:57;;;;;;;1.45;1.10;;;;;;;20.13;61.39;98791.31;2068880;28;20715;-52
2023/05/06 03:01:58;;;;;;;;;;;;;;;20.03;61.23;98793.59;2068575;28;20060;-53
2023/05/06 03:02:59;;;;;;;2.83;1.20;;;;;;;20.05;61.26;98783.47;2069222;28;19925;-55
2023/05/06 03:04:01;;;;;;;1.75;1.30;;;;;;;20.11;61.05;98785.31;2070053;28;20512;-56
2023/05/06 03:05:03;;;;;;;2.55;1.35;;;;;;;20.13;61.15;98780.56;2070469;28;20044;-47
2023/05/06 03:06:05;;;;;;;1.30;1.20;;;;;;;20.14;61.09;98784.06;2068528;28;20577;-55
2023/05/06 03:07:06;;;;;;;1.55;1.38;;;;;;;20.15;61.10;98783.88;2068157;28;20788;-55
2023/05/06 03:08:07;;;;;;;;;;;;;;;20.04;61.39;98784.50;2070763;28;20057;-50
2023/05/06 03:09:08;;;;;;;1.90;1.33;;;;;;;20.08;61.47;98785.72;2069564;28;19921;-50
2023/05/06 03:10:10;;;;;;;1.63;1.30;;;;;;;20.11;60.86;98781.78;2068250;28;20041;-55
2023/05/06 03:11:12;;;;;;;1.98;1.55;;;;;;;20.14;60.94;98790.28;2069392;28;26893;-54
2023/05/06 03:12:15;;;;;;;1.42;1.13;;;;;;;20.16;61.15;98784.69;2068458;28;20471;-57
2023/05/06 03:13:15;;;;;;;1.75;1.00;;;;;;;20.15;60.77;98785.75;2070175;28;20076;-52
2023/05/06 03:14:17;;;;;;;;;;;;;;;20.06;61.13;98785.13;2071402;28;20139;-51
2023/05/06 03:15:18;;;;;;;1.73;1.25;;;;;;;20.07;61.18;98792.16;2069167;28;20340;-53
2023/05/06 03:16:19;;;;;;;1.55;1.13;;;;;;;20.08;61.25;98793.81;2067418;28;20057;-52
2023/05/06 03:17:20;;;;;;;1.42;1.20;;;;;;;20.11;61.11;98790.69;2067028;28;20450;-54
2023/05/06 03:18:22;;;;;;;;;;;;;;;20.04;61.21;98779.94;2068874;28;20098;-48
2023/05/06 03:19:22;;;;;;;2.08;1.30;;;;;;;20.06;60.95;98785.13;2065873;28;19932;-52
2023/05/06 03:20:24;;;;;;;1.10;1.00;;;;;;;20.10;61.33;98786.34;2070867;28;20057;-50
2023/05/06 03:21:25;;;;;;;2.72;1.17;;;;;;;20.14;60.72;98782.19;2073503;28;20082;-51
2023/05/06 03:22:27;;;;;;;2.25;1.05;;;;;;;20.13;61.01;98783.25;2073998;28;20061;-50
2023/05/06 03:23:27;;;;;;;3.53;1.10;;;;;;;20.14;60.66;98782.19;2065893;28;20053;-53
2023/05/06 03:24:29;;;;;;;;;;;;;;;20.03;61.24;98782.84;2068655;28;20052;-47
2023/05/06 03:25:30;;;;;;;3.55;1.00;;;;;;;20.08;61.10;98788.41;2070668;28;19932;-57
2023/05/06 03:26:32;;;;;;;;;;;;;;;20.02;61.26;98786.56;2068272;28;20051;-55
2023/05/06 03:27:33;;;;;;;1.80;1.60;;;;;;;20.06;61.03;98775.19;2069461;28;20549;-53
2023/05/06 03:28:35;;;;;;;;;;;;;;;20.01;61.02;98783.06;2070752;28;20053;-55
2023/05/06 03:29:35;;;;;;;3.28;2.08;;;;;;;20.02;61.02;98783.88;2070389;28;19929;-55
2023/05/06 03:30:37;;;;;;;1.48;1.33;;;;;;;20.04;60.93;98788.03;2068573;28;20049;-57
2023/05/06 03:31:37;;;;;;;1.17;1.08;;;;;;;20.08;61.16;98791.13;2066510;28;20098;-54
2023/05/06 03:32:39;;;;;;;1.17;1.00;;;;;;;20.12;60.82;98792.38;2066068;28;21045;-56
2023/05/06 03:33:40;;;;;;;1.38;0.98;;;;;;;20.11;61.06;98792.56;2067962;28;20053;-56
2023/05/06 03:34:41;;;;;;;3.22;1.42;;;;;;;20.12;60.80;98791.53;2068774;28;20045;-52
2023/05/06 03:35:42;;;;;;;1.35;1.02;;;;;;;20.13;60.76;98790.50;2070606;28;20410;-57
2023/05/06 03:36:43;;;;;;;;;;;;;;;20.03;60.90;98786.38;2067064;28;21237;-57
2023/05/06 03:37:44;;;;;;;1.85;1.42;;;;;;;20.05;61.10;98780.75;2069243;28;20998;-46
2023/05/06 03:38:46;;;;;;;1.90;1.17;;;;;;;20.08;60.83;98788.41;2068856;28;20067;-55
2023/05/06 03:39:46;;;;;;;2.25;1.40;;;;;;;20.11;60.80;98788.00;2068351;28;20988;-53
2023/05/06 03:40:48;;;;;;;;;;;;;;;20.02;60.96;98791.97;2069176;28;20087;-49
2023/05/06 03:41:50;;;;;;;1.58;1.20;;;;;;;20.06;60.92;98795.91;2068541;28;19970;-58
2023/05/06 03:42:52;;;;;;;1.92;1.50;;;;;;;20.06;60.85;98798.59;2068555;28;20053;-53
2023/05/06 03:43:54;;;;;;;1.63;1.45;;;;;;;20.06;60.77;98798.59;2072043;28;20053;-54
2023/05/06 03:44:56;;;;;;;2.38;1.42;;;;;;;20.08;60.85;98796.50;2067709;28;20048;-57
2023/05/06 03:45:56;;;;;;;1.65;1.40;;;;;;;20.11;60.72;98795.25;2068651;28;20044;-49
2023/05/06 03:46:58;;;;;;;;;;;;;;;20.01;60.88;98799.22;2068982;28;20300;-53
2023/05/06 03:47:59;;;;;;;1.20;1.05;;;;;;;20.02;61.10;98797.34;2067871;28;20437;-56
2023/05/06 03:49:01;;;;;;;;;;;;;;;19.96;61.16;98807.09;2069921;28;20061;-57
2023/05/06 03:50:02;;;;;;;1.63;0.90;;;;;;;20.01;60.91;98801.09;2069249;28;20019;-53
2023/05/06 03:51:04;;;;;;;;;;;;;;;19.96;61.28;98814.34;2067438;28;20283;-53
2023/05/06 03:52:04;;;;;;;1.67;1.20;;;;;;;20.02;61.06;98802.72;2070034;28;20535;-56
2023/05/06 03:53:06;;;;;;;;;;;;;;;19.97;61.19;98799.81;2067977;28;20072;-52
2023/05/06 03:54:07;;;;;;;1.67;1.02;;;;;;;20.00;61.20;98802.09;2074844;28;19928;-53
2023/05/06 03:55:09;;;;;;;;;;;;;;;19.94;61.00;98801.06;2067059;28;20056;-53
2023/05/06 03:56:09;;;;;;;1.70;1.02;;;;;;;20.01;60.73;98807.28;2068334;28;19994;-56
2023/05/06 03:57:12;;;;;;;;;;;;;;;19.94;61.14;98802.94;2067402;28;20053;-53
2023/05/06 03:58:13;;;;;;;1.98;1.20;;;;;;;20.01;60.88;98809.16;2066971;28;19929;-53
2023/05/06 03:59:14;;;;;;;;;;;;;;;19.94;61.13;98803.75;2070222;28;20970;-54
2023/05/06 04:00:15;;;;;;;2.50;1.40;;;;;;;19.99;60.82;98809.34;2070593;28;19977;-56
2023/05/06 04:01:17;;;;;;;;;;;;;;;19.94;61.33;98811.00;2067453;28;20104;-56
2023/05/06 04:02:17;;;;;;;;;;;;;;;19.88;61.23;98801.09;2069190;28;21847;-52
2023/05/06 04:03:19;;;;;;;1.73;1.33;;;;;;;19.94;61.06;98802.94;2065825;28;19939;-55
2023/05/06 04:04:20;;;;;;;1.65;1.33;;;;;;;19.99;61.25;98803.16;2068882;28;20678;-57
2023/05/06 04:05:21;;;;;;;;;;;;;;;19.93;60.83;98802.13;2069029;28;20069;-51
2023/05/06 04:06:22;;;;;;;2.05;1.00;;;;;;;19.98;61.21;98804.19;2070301;28;20983;-51
2023/05/06 04:07:23;;;;;;;2.45;1.42;;;;;;;20.01;61.17;98801.09;2072393;28;20114;-47
2023/05/06 04:08:24;;;;;;;3.28;1.30;;;;;;;20.03;61.08;98802.53;2069085;28;21380;-56
2023/05/06 04:09:25;;;;;;;;;;;;;;;19.94;60.98;98805.63;2068766;28;20127;-52
2023/05/06 04:10:26;;;;;;;1.88;1.52;;;;;;;19.97;61.07;98808.72;2066841;28;19959;-54
2023/05/06 04:11:28;;;;;;;;;;;;;;;19.90;60.99;98813.31;2067235;28;20056;-57
2023/05/06 04:12:30;;;;;;;2.00;1.23;;;;;;;19.96;61.29;98814.34;2069945;28;20022;-52
2023/05/06 04:13:31;;;;;;;1.20;1.05;;;;;;;20.00;60.71;98807.47;2066743;28;20568;-54
2023/05/06 04:14:32;;;;;;;2.13;1.25;;;;;;;20.01;61.00;98809.16;2068557;28;20054;-52
2023/05/06 04:15:34;;;;;;;;;;;;;;;19.94;60.87;98814.53;2072217;28;20133;-56
2023/05/06 04:16:34;;;;;;;;;;;;;;;19.85;61.21;98811.22;2068519;28;19983;-51
2023/05/06 04:17:36;;;;;;;1.58;1.00;;;;;;;19.92;61.36;98813.94;2066664;28;20330;-52
2023/05/06 04:18:37;;;;;;;1.65;1.17;;;;;;;19.97;61.20;98811.41;2066771;28;20551;-55
2023/05/06 04:19:38;;;;;;;;;;;;;;;19.93;60.99;98814.75;2069908;28;20072;-53
2023/05/06 04:20:39;;;;;;;2.80;1.35;;;;;;;19.95;60.86;98812.69;2066548;28;19971;-55
2023/05/06 04:21:40;;;;;;;;;;;;;;;19.89;61.31;98817.00;2069044;28;20615;-51
2023/05/06 04:22:41;;;;;;;1.90;1.20;;;;;;;19.92;61.24;98813.94;2066495;28;19993;-55
2023/05/06 04:23:43;;;;;;;2.70;1.88;;;;;;;19.98;60.79;98814.97;2066929;28;20138;-49
2023/05/06 04:24:44;;;;;;;1.67;1.10;;;;;;;20.02;60.90;98821.56;2065380;28;20062;-48
2023/05/06 04:25:47;;;;;;;1.30;1.13;;;;;;;20.02;60.49;98822.41;2068999;28;20053;-57
2023/05/06 04:26:48;;;;;;;1.63;1.48;;;;;;;20.04;60.86;98819.50;2074365;28;20060;-52
2023/05/06 04:27:51;;;;;;;;;;;;;;;19.94;61.13;98824.47;2075361;28;20137;-52
2023/05/06 04:28:51;;;;;;;1.70;1.58;;;;;;;19.97;60.94;98818.66;2076116;28;19993;-53
2023/05/06 04:29:53;;;;;;;;;;;;;;;19.91;60.92;98822.19;2075223;28;20054;-50
2023/05/06 04:30:53;;;;;;;2.88;1.38;;;;;;;19.93;60.86;98828.22;2074248;28;19925;-54
2023/05/06 04:31:55;;;;;;;;;;;;;;;19.89;61.24;98818.88;2077484;28;20729;-50
2023/05/06 04:32:55;;;;;;;1.20;1.00;;;;;;;19.91;61.18;98823.03;2075364;28;19925;-55
2023/05/06 04:33:57;;;;;;;2.67;2.10;;;;;;;19.95;61.13;98826.16;2077224;28;21031;-48
2023/05/06 04:34:58;;;;;;;2.70;1.58;;;;;;;19.99;60.97;98828.19;2073964;28;20049;-48
2023/05/06 04:36:00;;;;;;;;;;;;;;;19.92;60.81;98826.53;2076205;28;20135;-53
2023/05/06 04:37:01;;;;;;;1.83;1.40;;;;;;;19.95;61.12;98826.97;2075302;28;20428;-53
2023/05/06 04:38:02;;;;;;;;;;;;;;;19.88;61.18;98820.75;2076044;28;20049;-50
2023/05/06 04:39:05;;;;;;;1.98;1.45;;;;;;;19.92;60.94;98818.47;2073213;28;19936;-55
2023/05/06 04:40:08;;;;;;;2.78;1.48;;;;;;;19.96;60.91;98827.78;2075643;28;20076;-55
2023/05/06 04:41:08;;;;;;;1.58;1.48;;;;;;;19.97;60.61;98824.88;2072479;28;20045;-47
2023/05/06 04:42:10;;;;;;;1.23;1.13;;;;;;;19.97;60.83;98830.25;2074611;28;20163;-52
2023/05/06 04:43:12;;;;;;;2.15;1.70;;;;;;;19.98;60.76;98823.84;2074643;28;20048;-50
2023/05/06 04:44:13;;;;;;;2.05;1.70;;;;;;;19.96;60.85;98828.63;2073879;28;20061;-52
2023/05/06 04:45:15;;;;;;;1.63;1.27;;;;;;;20.00;60.47;98820.94;2073288;28;20202;-51
2023/05/06 04:46:17;;;;;;;1.65;1.38;;;;;;;20.03;60.82;98825.91;2075397;28;20083;-49
2023/05/06 04:47:18;;;;;;;2.40;1.50;;;;;;;20.01;60.49;98830.69;2073397;28;20106;-53
2023/05/06 04:48:20;;;;;;;;;;;;;;;19.92;61.04;98829.22;2077492;28;20596;-51
2023/05/06 04:49:21;;;;;;;1.90;1.67;;;;;;;19.92;60.73;98821.16;2074130;28;20522;-57
2023/05/06 04:50:23;;;;;;;;;;;;;;;19.86;60.94;98826.34;2071299;28;20067;-52
2023/05/06 04:51:24;;;;;;;2.20;1.33;;;;;;;19.91;61.09;98824.91;2068704;28;20072;-48
2023/05/06 04:52:25;;;;;;;;;;;;;;;19.84;61.36;98828.41;2068989;28;20092;-55
2023/05/06 04:53:26;;;;;;;;;;;;;;;19.82;61.05;98826.97;2068435;28;19964;-52
2023/05/06 04:54:27;;;;;;;2.07;1.30;;;;;;;19.85;60.86;98832.75;2070471;28;19935;-53
2023/05/06 04:55:28;;;;;;;1.90;1.48;;;;;;;19.91;60.76;98825.72;2067709;28;21037;-55
2023/05/06 04:56:29;;;;;;;;;;;;;;;19.83;61.01;98826.75;2071338;28;20579;-56
2023/05/06 04:57:30;;;;;;;2.10;1.73;;;;;;;19.89;61.01;98825.09;2073112;28;19951;-53
2023/05/06 04:58:33;;;;;;;;;;;;;;;19.82;61.04;98832.34;2074748;28;20170;-55
2023/05/06 04:59:34;;;;;;;2.17;1.63;;;;;;;19.88;60.78;98825.31;2073486;28;19940;-54